Time;durP1;ratioP1;P1;durP2;ratioP2;P2;SDS_P1;SDS_P2;PMS_P1;PMS_P2;Temp;Humidity;BMP_temperature;BMP_pressure;BME280_temperature;BME280_humidity;BME280_pressure;Samples;Min_cycle;Max_cycle;Signal;HPM_P1;HPM_P2
2023/08/02 00:09:34;;;;;;;2.60;2.10;;;;;;;15.36;93.74;98202.14;436780;1251;139656;-66
2023/08/02 00:19:40;;;;;;;3.20;2.40;;;;;;;15.20;93.79;98216.14;436551;1251;140798;-65
2023/08/02 00:29:46;;;;;;;3.90;2.50;;;;;;;14.95;94.02;98211.77;436489;1253;139784;-67
2023/08/02 00:39:53;;;;;;;2.60;2.40;;;;;;;14.69;94.50;98218.27;436655;1251;140074;-67
2023/08/02 00:49:59;;;;;;;4.10;2.20;;;;;;;14.46;95.19;98221.98;437140;1251;139979;-68
2023/08/02 01:00:06;;;;;;;2.10;1.70;;;;;;;14.25;95.64;98230.45;436641;1253;139736;-70
2023/08/02 01:10:20;;;;;;;5.40;2.80;;;;;;;14.08;96.01;98233.02;437748;1251;139879;-69
2023/08/02 01:20:26;;;;;;;5.10;3.20;;;;;;;13.95;96.38;98244.64;436523;1251;139224;-69
2023/08/02 01:30:35;;;;;;;2.10;2.00;;;;;;;13.80;96.66;98245.80;436636;1250;140514;-70
2023/08/02 01:40:42;;;;;;;2.30;1.90;;;;;;;13.62;96.98;98240.44;436993;1253;139720;-68
2023/08/02 01:50:47;;;;;;;2.90;1.70;;;;;;;13.47;97.14;98243.49;437121;1250;140441;-69
2023/08/02 02:00:53;;;;;;;2.50;1.90;;;;;;;13.33;97.30;98254.17;436944;1250;139114;-67
2023/08/02 02:10:59;;;;;;;3.20;3.00;;;;;;;13.19;97.51;98259.14;436492;1253;141001;-67
2023/08/02 02:21:05;;;;;;;2.50;2.20;;;;;;;13.07;98.32;98258.20;436476;1251;139359;-68
2023/08/02 02:31:11;;;;;;;4.40;4.10;;;;;;;12.99;99.15;98262.33;437220;1249;140501;-68
2023/08/02 02:41:16;;;;;;;2.80;2.60;;;;;;;12.91;99.88;98266.02;436603;1250;140496;-70
2023/08/02 02:51:22;;;;;;;5.60;3.20;;;;;;;12.81;100.00;98266.07;436357;1250;139716;-66
2023/08/02 03:01:28;;;;;;;5.90;3.20;;;;;;;12.72;100.00;98270.63;436475;1253;141082;-72
2023/08/02 03:11:34;;;;;;;4.00;3.30;;;;;;;12.64;100.00;98277.47;436352;1250;139246;-69
2023/08/02 03:21:40;;;;;;;4.10;3.50;;;;;;;12.64;100.00;98279.45;436202;1251;139731;-69
2023/08/02 03:31:46;;;;;;;2.80;2.60;;;;;;;12.75;100.00;98289.50;436357;1250;139388;-68
2023/08/02 03:41:52;;;;;;;6.20;3.30;;;;;;;12.92;100.00;98294.55;436446;1253;139954;-65
2023/08/02 03:51:58;;;;;;;4.50;3.00;;;;;;;13.18;100.00;98305.88;436278;1253;139692;-68
2023/08/02 04:02:04;;;;;;;7.30;3.30;;;;;;;13.51;100.00;98309.72;436349;1250;139733;-67
2023/08/02 04:12:11;;;;;;;5.00;3.20;;;;;;;13.85;99.97;98313.31;436550;1250;139980;-67
2023/08/02 04:22:17;;;;;;;3.50;2.60;;;;;;;14.34;99.92;98313.77;436733;1250;139963;-67
2023/08/02 04:32:23;;;;;;;4.60;2.30;;;;;;;20.07;97.63;98325.67;436701;1250;140187;-68
2023/08/02 04:42:29;;;;;;;3.80;2.90;;;;;;;25.52;82.15;98337.78;436483;1253;139993;-68
2023/08/02 04:52:35;;;;;;;3.50;2.10;;;;;;;23.17;74.02;98346.70;436757;1250;139111;-70
2023/08/02 05:02:41;;;;;;;4.90;2.10;;;;;;;22.24;76.52;98338.42;436778;1253;140122;-70
2023/08/02 05:12:47;;;;;;;7.10;2.20;;;;;;;29.87;69.41;98329.23;436713;1253;139070;-68
2023/08/02 05:22:52;;;;;;;4.00;2.10;;;;;;;35.45;57.77;98327.67;436530;1249;138505;-72
2023/08/02 05:32:58;;;;;;;3.10;2.10;;;;;;;38.98;46.76;98334.17;436611;1250;139033;-72
2023/08/02 05:43:04;;;;;;;2.00;1.80;;;;;;;42.49;40.08;98333.75;436360;1249;138459;-71
2023/08/02 05:53:10;;;;;;;3.70;2.60;;;;;;;44.92;34.73;98333.41;436587;1249;139681;-70
2023/08/02 06:03:16;;;;;;;2.10;1.30;;;;;;;46.81;30.54;98334.86;436444;1250;139042;-71
2023/08/02 06:13:22;;;;;;;2.50;1.50;;;;;;;47.97;27.52;98342.86;436427;1253;139541;-71
2023/08/02 06:23:27;;;;;;;3.00;1.60;;;;;;;50.01;25.26;98344.63;436493;1250;140419;-71
2023/08/02 06:33:33;;;;;;;3.70;1.80;;;;;;;51.59;23.18;98344.96;436536;1250;140015;-70
2023/08/02 06:43:39;;;;;;;1.40;1.30;;;;;;;52.03;21.63;98347.75;436944;1249;139495;-72
2023/08/02 06:53:45;;;;;;;2.00;1.80;;;;;;;53.42;19.95;98355.35;436326;1253;138565;-73
2023/08/02 07:03:51;;;;;;;2.30;1.90;;;;;;;53.53;18.82;98358.22;436268;1251;139323;-72
2023/08/02 07:13:57;;;;;;;2.10;2.00;;;;;;;54.36;17.85;98359.52;436296;1250;139559;-71
2023/08/02 07:24:02;;;;;;;3.10;2.40;;;;;;;54.03;17.16;98357.00;436310;1253;138429;-72
2023/08/02 07:34:08;;;;;;;3.20;2.60;;;;;;;53.53;16.91;98367.06;436363;1253;139606;-73
2023/08/02 07:44:16;;;;;;;2.60;2.40;;;;;;;53.76;16.68;98368.34;436116;1250;356031;-73
2023/08/02 07:54:21;;;;;;;3.30;1.30;;;;;;;49.40;17.38;98361.58;436484;1253;138432;-73
2023/08/02 08:04:27;;;;;;;1.40;1.30;;;;;;;43.11;19.77;98353.21;436354;1253;138733;-73
2023/08/02 08:14:34;;;;;;;1.60;1.10;;;;;;;43.20;20.57;98351.86;436228;1253;139793;-73
2023/08/02 08:24:40;;;;;;;2.00;1.40;;;;;;;39.04;22.72;98344.22;436579;1253;139506;-73
2023/08/02 08:34:46;;;;;;;3.00;2.00;;;;;;;35.48;25.59;98344.85;436432;1251;140570;-74
2023/08/02 08:44:55;;;;;;;1.70;1.40;;;;;;;33.97;27.39;98351.14;436764;1250;139326;-74
2023/08/02 08:55:02;;;;;;;1.50;1.20;;;;;;;32.18;28.82;98353.80;436805;1251;139438;-73
2023/08/02 09:05:10;;;;;;;1.00;1.00;;;;;;;31.12;29.81;98356.48;436809;1253;139492;-73
2023/08/02 09:15:16;;;;;;;2.00;1.20;;;;;;;30.53;30.87;98355.76;437146;1253;138996;-73
2023/08/02 09:25:24;;;;;;;2.30;1.00;;;;;;;29.62;31.89;98355.70;436493;1250;138922;-74
2023/08/02 09:35:34;;;;;;;3.60;1.40;;;;;;;28.20;33.19;98356.30;436429;1250;138337;-76
2023/08/02 09:45:40;;;;;;;1.60;0.90;;;;;;;27.61;34.22;98345.02;438415;1250;138425;-75
2023/08/02 09:55:49;;;;;;;1.60;0.90;;;;;;;27.38;34.93;98335.84;438246;1250;140068;-74
2023/08/02 10:06:01;;;;;;;2.60;0.90;;;;;;;27.28;35.47;98315.23;437280;1253;139351;-74
2023/08/02 10:16:08;;;;;;;2.80;1.50;;;;;;;27.01;35.86;98308.48;438476;1251;138939;-64
2023/08/02 10:26:19;;;;;;;1.80;1.10;;;;;;;26.82;36.05;98307.86;436368;1251;139122;-68
2023/08/02 10:36:25;;;;;;;1.30;1.20;;;;;;;26.85;36.45;98302.39;436750;1253;139739;-73
2023/08/02 10:46:32;;;;;;;3.30;1.40;;;;;;;26.81;36.71;98301.10;438917;1251;139552;-75
2023/08/02 10:57:05;;;;;;;1.60;0.80;;;;;;;26.74;36.52;98289.59;438828;1250;138435;-74
2023/08/02 11:07:18;;;;;;;1.10;0.70;;;;;;;26.86;36.82;98292.07;438901;1250;138968;-70
2023/08/02 11:17:25;;;;;;;2.00;1.10;;;;;;;26.87;37.26;98282.50;437353;1253;138570;-68
2023/08/02 11:27:34;;;;;;;1.40;0.80;;;;;;;26.95;36.89;98271.27;436676;1250;138459;-65
2023/08/02 11:37:43;;;;;;;1.00;0.90;;;;;;;26.54;37.68;98270.65;436285;1251;139410;-66
2023/08/02 11:47:49;;;;;;;1.00;1.00;;;;;;;26.20;37.92;98274.49;436370;1253;138644;-67
2023/08/02 11:58:01;;;;;;;3.30;0.70;;;;;;;26.10;38.39;98263.93;436288;1253;139219;-66
2023/08/02 12:08:11;;;;;;;0.50;0.50;;;;;;;26.64;38.00;98254.89;436327;1250;140055;-65
2023/08/02 12:18:17;;;;;;;2.00;0.60;;;;;;;26.42;37.58;98246.28;436544;1251;138520;-63
2023/08/02 12:28:23;;;;;;;2.00;0.80;;;;;;;26.59;37.80;98240.88;435931;1253;140101;-66
2023/08/02 12:38:30;;;;;;;0.90;0.90;;;;;;;26.55;37.49;98230.63;436213;1253;140118;-63
2023/08/02 12:48:36;;;;;;;3.80;0.80;;;;;;;26.28;37.98;98226.44;436779;1250;138621;-65
2023/08/02 12:58:42;;;;;;;1.80;1.00;;;;;;;26.32;38.34;98210.80;436329;1253;139842;-65
2023/08/02 13:08:48;;;;;;;1.90;1.00;;;;;;;26.66;38.15;98204.21;436406;1250;138775;-76
2023/08/02 13:18:54;;;;;;;1.80;0.70;;;;;;;26.98;37.66;98192.36;439147;1253;139324;-79
2023/08/02 13:29:00;;;;;;;3.00;0.80;;;;;;;26.94;37.45;98185.11;439228;1253;139825;-83
2023/08/02 13:39:05;;;;;;;0.70;0.70;;;;;;;26.64;38.04;98185.95;440868;1251;138958;-78
2023/08/02 13:49:11;;;;;;;1.90;0.80;;;;;;;26.58;37.67;98181.64;438648;1250;138987;-72
2023/08/02 13:59:17;;;;;;;1.10;0.90;;;;;;;26.84;37.47;98165.54;438866;1250;138415;-80
2023/08/02 14:09:23;;;;;;;0.80;0.80;;;;;;;26.97;37.33;98160.02;438324;1253;139778;-66
2023/08/02 14:19:28;;;;;;;5.20;1.00;;;;;;;26.95;37.34;98157.13;436594;1253;140008;-67
2023/08/02 14:29:34;;;;;;;3.30;1.20;;;;;;;26.89;37.32;98145.86;436724;1253;138410;-67
2023/08/02 14:39:40;;;;;;;0.60;0.60;;;;;;;26.58;36.85;98143.17;437330;1253;138273;-70
2023/08/02 14:49:46;;;;;;;2.60;1.20;;;;;;;26.35;36.65;98133.61;437532;1253;138835;-68
2023/08/02 14:59:52;;;;;;;2.00;0.90;;;;;;;25.92;37.05;98126.65;438907;1250;139333;-70
2023/08/02 15:09:57;;;;;;;0.80;0.70;;;;;;;25.72;37.58;98110.17;438876;1253;138466;-70
2023/08/02 15:20:04;;;;;;;2.70;0.80;;;;;;;25.73;37.27;98101.71;438848;1253;138292;-65
2023/08/02 15:30:11;;;;;;;2.20;1.10;;;;;;;25.64;36.80;98093.10;436409;1249;139359;-70
2023/08/02 15:40:18;;;;;;;2.00;0.80;;;;;;;25.13;37.13;98091.98;439380;1253;138765;-71
2023/08/02 15:50:24;;;;;;;1.10;0.70;;;;;;;24.58;37.42;98079.41;439096;1253;139048;-65
2023/08/02 16:00:30;;;;;;;1.00;0.80;;;;;;;24.20;37.84;98061.98;436984;1253;138302;-64
2023/08/02 16:10:36;;;;;;;0.70;0.70;;;;;;;24.17;38.13;98056.36;436531;1251;139007;-64
2023/08/02 16:20:42;;;;;;;3.40;1.50;;;;;;;24.02;38.80;98052.27;436573;1253;138978;-68
2023/08/02 16:30:48;;;;;;;1.10;0.70;;;;;;;24.02;39.23;98045.48;436752;1252;138436;-69
2023/08/02 16:40:55;;;;;;;1.40;1.10;;;;;;;24.05;39.75;98041.65;438166;1253;139916;-66
2023/08/02 16:51:01;;;;;;;1.40;1.30;;;;;;;23.77;39.97;98028.61;437056;1254;139543;-66
2023/08/02 17:01:06;;;;;;;2.70;0.70;;;;;;;23.51;40.57;98021.34;436955;1251;138865;-65
2023/08/02 17:11:12;;;;;;;1.20;0.70;;;;;;;25.08;40.00;98055.91;436795;1251;140567;-65
2023/08/02 17:21:19;;;;;;;4.40;2.10;;;;;;;24.88;39.47;98067.84;436643;1253;138320;-68
2023/08/02 17:31:27;;;;;;;1.70;1.30;;;;;;;23.71;40.60;98062.35;436535;1253;139181;-67
2023/08/02 17:41:33;;;;;;;1.20;0.80;;;;;;;22.98;41.74;98056.56;436701;1250;138408;-65
2023/08/02 17:51:39;;;;;;;1.70;0.80;;;;;;;22.60;42.77;98051.48;436860;1251;139218;-65
2023/08/02 18:01:47;;;;;;;1.90;1.20;;;;;;;22.25;43.30;98046.93;436729;1253;138472;-65
2023/08/02 18:11:52;;;;;;;;;;;;;;;21.90;44.00;98050.67;436835;1251;139298;-65
2023/08/02 18:21:59;;;;;;;2.70;1.10;;;;;;;21.48;44.76;98048.91;436386;1254;125691;-65
2023/08/02 18:32:07;;;;;;;1.60;1.00;;;;;;;21.13;45.58;98056.07;436372;1253;139414;-67
2023/08/02 18:42:13;;;;;;;2.80;1.10;;;;;;;20.78;46.13;98045.63;437456;1253;138354;-66
2023/08/02 18:52:20;;;;;;;2.80;1.50;;;;;;;20.53;46.61;98044.30;436545;1251;139913;-66
2023/08/02 19:02:26;;;;;;;1.30;1.00;;;;;;;20.34;47.21;98049.81;436662;1253;139091;-66
2023/08/02 19:12:34;;;;;;;3.40;1.70;;;;;;;20.15;47.86;98041.30;436759;1254;138865;-66
2023/08/02 19:22:40;;;;;;;5.60;2.10;;;;;;;19.98;48.28;98033.18;436754;1253;138925;-66
2023/08/02 19:32:46;;;;;;;3.20;1.00;;;;;;;19.84;48.63;98033.99;436877;1251;139408;-66
2023/08/02 19:42:53;;;;;;;2.00;1.40;;;;;;;19.82;49.04;98028.16;436759;1251;147930;-66
2023/08/02 19:52:59;;;;;;;2.90;1.90;;;;;;;19.87;49.24;98023.71;436563;1252;138584;-66
2023/08/02 20:03:05;;;;;;;3.10;1.20;;;;;;;19.94;49.23;98014.23;436956;1253;140018;-65
2023/08/02 20:13:17;;;;;;;2.90;1.20;;;;;;;19.93;49.58;98009.30;437185;1253;138630;-65
2023/08/02 20:23:24;;;;;;;5.20;1.30;;;;;;;19.85;49.99;98007.06;436963;1251;139479;-66
2023/08/02 20:33:31;;;;;;;7.80;2.20;;;;;;;19.76;50.45;97985.61;436813;1251;140429;-66
2023/08/02 20:43:38;;;;;;;3.20;2.10;;;;;;;19.66;50.83;97976.83;436781;1250;139122;-67
2023/08/02 20:53:44;;;;;;;6.40;1.80;;;;;;;19.60;51.10;97973.19;436585;1250;139105;-67
2023/08/02 21:03:57;;;;;;;8.60;2.60;;;;;;;19.56;51.51;97963.30;436208;1253;139054;-65
2023/08/02 21:14:03;;;;;;;3.70;1.50;;;;;;;19.53;51.75;97972.66;436336;1251;138513;-65
2023/08/02 21:24:12;;;;;;;5.70;2.40;;;;;;;19.53;52.01;97968.20;436406;1253;138363;-65
2023/08/02 21:34:18;;;;;;;2.60;1.50;;;;;;;19.54;52.23;97964.31;436529;1251;138900;-64
2023/08/02 21:44:27;;;;;;;2.30;1.30;;;;;;;19.59;52.30;97961.27;436154;1251;138495;-65
2023/08/02 21:54:33;;;;;;;3.20;1.40;;;;;;;19.73;52.11;97969.48;436832;1250;139071;-65
2023/08/02 22:04:45;;;;;;;3.20;1.60;;;;;;;19.88;52.00;97960.14;436298;1251;140504;-66
2023/08/02 22:15:00;;;;;;;1.20;1.10;;;;;;;20.00;52.02;97945.58;436074;1251;140433;-65
2023/08/02 22:25:07;;;;;;;1.90;1.50;;;;;;;20.10;52.17;97970.53;436439;1253;138308;-66
2023/08/02 22:35:13;;;;;;;5.80;1.80;;;;;;;20.19;52.38;97967.64;436108;1253;138569;-66
2023/08/02 22:45:19;;;;;;;6.00;1.40;;;;;;;20.19;52.65;97948.80;435881;1253;139383;-67
2023/08/02 22:55:25;;;;;;;2.00;1.40;;;;;;;20.12;52.95;97942.05;435970;1253;138432;-64
2023/08/02 23:05:47;;;;;;;1.90;1.40;;;;;;;20.06;53.26;97921.34;436159;1251;138397;-66
2023/08/02 23:15:53;;;;;;;3.00;1.50;;;;;;;19.95;53.70;97909.13;436101;1250;139610;-65
2023/08/02 23:26:05;;;;;;;3.10;1.60;;;;;;;19.83;54.29;97922.74;436353;1253;139373;-67
2023/08/02 23:36:11;;;;;;;1.80;0.90;;;;;;;19.78;54.91;97939.67;435980;1250;138547;-67
2023/08/02 23:46:17;;;;;;;3.20;1.30;;;;;;;19.78;55.14;97933.08;436087;1253;138310;-68
2023/08/02 23:56:23;;;;;;;2.80;1.90;;;;;;;19.81;55.42;97915.02;436269;1251;139654;-68
